createdAt,value
2022-08-10T00:00:57.094Z,99.90
2022-08-10T00:03:24.274Z,99.90
2022-08-10T00:05:54.931Z,99.90
2022-08-10T00:08:25.155Z,99.90
2022-08-10T00:10:54.143Z,99.90
2022-08-10T00:13:22.168Z,99.90
2022-08-10T00:15:54.166Z,99.90
2022-08-10T00:18:31.313Z,99.90
2022-08-10T00:21:03.360Z,99.90
2022-08-10T00:23:30.960Z,99.90
2022-08-10T00:25:58.245Z,99.90
2022-08-10T00:28:25.502Z,99.90
2022-08-10T00:30:52.749Z,99.90
2022-08-10T00:33:21.126Z,99.90
2022-08-10T00:35:48.954Z,99.90
2022-08-10T00:38:16.515Z,99.90
2022-08-10T00:40:43.618Z,99.90
2022-08-10T00:43:10.818Z,99.90
2022-08-10T00:45:38.410Z,99.90
2022-08-10T00:48:06.196Z,99.90
2022-08-10T00:50:36.217Z,99.90
2022-08-10T00:53:03.728Z,99.90
2022-08-10T00:55:31.157Z,99.90
2022-08-10T00:57:58.459Z,99.90
2022-08-10T01:00:26.129Z,99.90
2022-08-10T01:02:53.453Z,99.90
2022-08-10T01:05:21.912Z,99.90
2022-08-10T01:08:27.439Z,99.90
2022-08-10T01:12:27.713Z,99.90
2022-08-10T01:14:17.214Z,99.90
2022-08-10T01:17:00.680Z,99.90
2022-08-10T01:19:42.894Z,99.90
2022-08-10T01:22:43.795Z,99.90
2022-08-10T01:25:18.520Z,99.90
2022-08-10T01:28:12.404Z,99.90
2022-08-10T01:30:43.571Z,99.90
2022-08-10T01:33:59.108Z,99.90
2022-08-10T01:36:43.639Z,99.90
2022-08-10T01:39:16.758Z,99.90
2022-08-10T01:41:47.906Z,99.90
2022-08-10T01:44:28.625Z,99.90
2022-08-10T01:47:26.445Z,99.90
2022-08-10T01:50:02.307Z,99.90
2022-08-10T01:52:31.643Z,99.90
2022-08-10T01:54:59.904Z,99.90
2022-08-10T01:57:32.495Z,99.90
2022-08-10T02:00:02.931Z,99.90
2022-08-10T02:02:34.112Z,99.90
2022-08-10T02:05:05.276Z,99.90
2022-08-10T02:07:34.220Z,99.90
2022-08-10T02:10:09.788Z,99.90
2022-08-10T02:12:41.231Z,99.90
2022-08-10T02:15:13.133Z,99.90
2022-08-10T02:17:57.699Z,99.90
2022-08-10T02:20:44.678Z,99.90
2022-08-10T02:23:21.544Z,99.90
2022-08-10T02:25:50.212Z,99.90
2022-08-10T02:28:31.201Z,99.90
2022-08-10T02:31:15.346Z,99.90
2022-08-10T02:33:56.739Z,99.90
2022-08-10T02:36:31.336Z,99.90
2022-08-10T02:39:04.578Z,99.90
2022-08-10T02:45:03.201Z,99.90
2022-08-10T02:45:21.243Z,99.90
2022-08-10T02:47:51.657Z,99.90
2022-08-10T02:50:34.273Z,99.90
2022-08-10T02:53:54.245Z,99.90
2022-08-10T02:56:06.754Z,99.90
2022-08-10T02:58:36.052Z,99.90
2022-08-10T03:01:08.111Z,99.90
2022-08-10T03:03:50.110Z,99.90
2022-08-10T03:06:22.292Z,99.90
2022-08-10T03:08:50.632Z,99.90
2022-08-10T03:12:36.790Z,99.90
2022-08-10T03:14:16.404Z,99.90
2022-08-10T03:16:44.993Z,99.90
2022-08-10T03:20:35.560Z,99.90
2022-08-10T03:22:05.195Z,99.90
2022-08-10T03:24:33.960Z,99.90
2022-08-10T03:27:02.790Z,99.90
2022-08-10T03:30:23.198Z,99.90
2022-08-10T03:32:23.267Z,99.90
2022-08-10T03:34:51.944Z,99.90
2022-08-10T03:37:19.159Z,99.90
2022-08-10T03:39:46.356Z,99.90
2022-08-10T03:42:15.461Z,99.90
2022-08-10T03:44:47.342Z,99.90
2022-08-10T03:47:20.457Z,99.90
2022-08-10T03:49:49.109Z,99.90
2022-08-10T03:52:17.999Z,99.90
2022-08-10T03:54:47.108Z,99.90
2022-08-10T03:57:15.097Z,99.90
2022-08-10T03:59:42.719Z,99.90
2022-08-10T04:02:44.209Z,99.90
2022-08-10T04:04:57.139Z,99.90
2022-08-10T04:07:24.896Z,99.90
2022-08-10T04:09:56.181Z,99.90
2022-08-10T04:12:29.911Z,99.90
2022-08-10T04:14:57.094Z,99.90
2022-08-10T04:18:03.809Z,99.90
2022-08-10T04:20:34.224Z,99.90
2022-08-10T04:23:06.718Z,99.90
2022-08-10T04:25:34.796Z,99.90
2022-08-10T04:28:03.139Z,99.90
2022-08-10T04:30:32.195Z,99.90
2022-08-10T04:33:00.283Z,99.90
2022-08-10T04:35:29.883Z,99.90
2022-08-10T04:37:58.352Z,99.90
2022-08-10T04:40:29.168Z,99.90
2022-08-10T04:43:07.288Z,99.90
2022-08-10T04:45:50.001Z,99.90
2022-08-10T04:48:41.576Z,99.90
2022-08-10T04:51:10.694Z,99.90
2022-08-10T04:54:03.042Z,99.90
2022-08-10T04:56:31.847Z,99.90
2022-08-10T04:59:00.674Z,99.90
2022-08-10T05:01:28.684Z,99.90
2022-08-10T05:04:35.699Z,99.90
2022-08-10T05:07:03.728Z,99.90
2022-08-10T05:09:31.191Z,99.90
2022-08-10T05:11:58.374Z,99.90
2022-08-10T05:14:25.663Z,99.90
2022-08-10T05:16:56.315Z,99.90
2022-08-10T05:19:25.145Z,99.90
2022-08-10T05:22:10.988Z,99.90
2022-08-10T05:24:38.138Z,99.90
2022-08-10T05:27:10.231Z,99.90
2022-08-10T05:29:38.407Z,99.90
2022-08-10T05:32:05.930Z,99.90
2022-08-10T05:34:33.262Z,99.90
2022-08-10T05:37:00.943Z,99.90
2022-08-10T05:39:32.061Z,99.90
2022-08-10T05:42:01.742Z,99.90
2022-08-10T05:44:30.129Z,99.90
2022-08-10T05:46:57.444Z,99.90
2022-08-10T05:49:25.209Z,99.90
2022-08-10T05:51:52.827Z,99.90
2022-08-10T05:54:20.330Z,99.90
2022-08-10T05:56:56.982Z,99.90
2022-08-10T06:00:30.880Z,99.90
2022-08-10T06:02:41.245Z,99.90
2022-08-10T06:05:16.408Z,99.90
2022-08-10T06:07:49.815Z,99.90
2022-08-10T06:10:19.636Z,99.90
2022-08-10T06:13:19.379Z,99.90
2022-08-10T06:16:00.248Z,99.90
2022-08-10T06:18:28.043Z,99.90
2022-08-10T06:20:55.668Z,99.90
2022-08-10T06:23:25.824Z,99.90
2022-08-10T06:26:09.751Z,99.90
2022-08-10T06:29:02.165Z,99.90
2022-08-10T06:31:48.032Z,99.90
2022-08-10T06:34:40.038Z,99.90
2022-08-10T06:37:08.717Z,99.90
2022-08-10T06:39:37.056Z,99.90
2022-08-10T06:42:14.842Z,99.90
2022-08-10T06:45:10.420Z,99.90
2022-08-10T06:47:52.447Z,99.90
2022-08-10T06:50:45.465Z,99.90
2022-08-10T06:53:20.872Z,99.90
2022-08-10T06:55:58.190Z,99.90
2022-08-10T06:58:30.105Z,99.90
2022-08-10T07:00:58.267Z,99.90
2022-08-10T07:03:34.287Z,99.90
2022-08-10T07:06:03.482Z,99.90
2022-08-10T07:08:33.810Z,99.90
2022-08-10T07:11:03.422Z,99.90
2022-08-10T07:14:16.999Z,99.90
2022-08-10T07:16:21.312Z,99.90
2022-08-10T07:18:49.709Z,99.90
2022-08-10T07:21:19.047Z,99.90
2022-08-10T07:23:57.240Z,99.90
2022-08-10T07:26:29.127Z,99.90
2022-08-10T07:28:57.200Z,99.90
2022-08-10T07:31:33.030Z,99.90
2022-08-10T07:34:28.782Z,99.90
2022-08-10T07:37:03.060Z,99.90
2022-08-10T07:40:02.909Z,99.90
2022-08-10T07:42:24.873Z,99.90
2022-08-10T07:45:02.619Z,99.90
2022-08-10T07:47:53.098Z,99.90
2022-08-10T07:50:25.012Z,99.90
2022-08-10T07:52:55.073Z,99.90
2022-08-10T07:56:02.201Z,99.90
2022-08-10T07:58:16.252Z,99.90
2022-08-10T08:00:45.994Z,99.90
2022-08-10T08:03:15.205Z,99.90
2022-08-10T08:05:58.954Z,99.90
2022-08-10T08:08:32.343Z,99.90
2022-08-10T08:11:01.016Z,99.90
2022-08-10T08:13:29.635Z,99.90
2022-08-10T08:16:16.878Z,99.90
2022-08-10T08:19:03.833Z,99.90
2022-08-10T08:24:09.884Z,99.90
2022-08-10T08:24:33.354Z,99.90
2022-08-10T08:27:05.432Z,99.90
2022-08-10T08:29:36.283Z,99.90
2022-08-10T08:32:04.917Z,99.90
2022-08-10T08:34:33.627Z,99.90
2022-08-10T08:37:03.258Z,99.90
2022-08-10T08:39:37.123Z,99.90
2022-08-10T08:42:26.474Z,99.90
2022-08-10T08:45:21.401Z,99.90
2022-08-10T08:48:12.027Z,99.90
2022-08-10T08:50:57.292Z,99.90
2022-08-10T08:54:01.877Z,99.90
2022-08-10T08:57:05.902Z,99.90
2022-08-10T09:00:06.213Z,99.90
2022-08-10T09:02:55.077Z,99.90
2022-08-10T09:05:58.579Z,99.90
2022-08-10T09:08:53.885Z,99.90
2022-08-10T09:11:58.322Z,99.90
2022-08-10T09:14:59.831Z,99.90
2022-08-10T09:17:52.964Z,99.90
2022-08-10T09:20:34.664Z,99.90
2022-08-10T09:24:04.101Z,99.90
2022-08-10T09:26:43.101Z,99.90
2022-08-10T09:29:15.233Z,99.90
2022-08-10T09:32:54.913Z,99.90
2022-08-10T09:36:22.103Z,99.90
2022-08-10T09:38:01.856Z,99.90
2022-08-10T09:41:00.448Z,99.90
2022-08-10T09:43:42.376Z,99.90
2022-08-10T09:46:34.266Z,99.90
2022-08-10T09:49:22.352Z,99.90
2022-08-10T09:52:14.754Z,99.90
2022-08-10T09:55:10.080Z,99.90
2022-08-10T09:57:54.925Z,99.90
2022-08-10T10:00:32.214Z,99.70
2022-08-10T10:03:26.210Z,99.90
2022-08-10T10:06:30.269Z,98.60
2022-08-10T10:09:10.525Z,98.70
2022-08-10T10:12:09.665Z,98.30
2022-08-10T10:15:10.252Z,94.20
2022-08-10T10:18:19.881Z,96.30
2022-08-10T10:20:55.966Z,93.50
2022-08-10T10:23:42.040Z,93.30
2022-08-10T10:26:48.437Z,92.20
2022-08-10T10:29:58.344Z,94.00
2022-08-10T10:32:57.665Z,92.20
2022-08-10T10:35:52.555Z,92.20
2022-08-10T10:38:29.977Z,93.30
2022-08-10T10:41:04.629Z,93.20
2022-08-10T10:44:17.664Z,91.90
2022-08-10T10:46:57.357Z,91.90
2022-08-10T10:49:51.903Z,93.10
2022-08-10T10:52:38.053Z,91.90
2022-08-10T10:56:13.291Z,91.30
2022-08-10T10:59:54.325Z,89.70
2022-08-10T11:01:59.769Z,88.50
2022-08-10T11:04:59.230Z,90.60
2022-08-10T11:07:42.405Z,82.00
2022-08-10T11:10:33.274Z,82.40
2022-08-10T11:14:25.673Z,85.70
2022-08-10T11:16:24.719Z,88.50
2022-08-10T11:19:12.264Z,86.60
2022-08-10T11:22:03.505Z,86.50
2022-08-10T11:24:50.241Z,80.80
2022-08-10T11:27:39.350Z,82.30
2022-08-10T11:30:10.748Z,78.80
2022-08-10T11:32:52.116Z,83.50
2022-08-10T11:38:51.930Z,79.30
2022-08-10T11:42:09.983Z,78.20
2022-08-10T11:44:40.270Z,81.10
2022-08-10T11:50:13.887Z,72.70
2022-08-10T11:53:08.693Z,70.10
2022-08-10T11:55:36.177Z,69.10
2022-08-10T11:58:32.723Z,63.70
2022-08-10T12:01:09.134Z,68.90
2022-08-10T12:03:39.271Z,63.60
2022-08-10T12:06:13.468Z,60.20
2022-08-10T12:10:05.134Z,57.80
2022-08-10T12:11:34.313Z,63.10
2022-08-10T12:14:39.674Z,63.80
2022-08-10T12:17:16.177Z,66.60
2022-08-10T12:19:59.412Z,63.10
2022-08-10T12:23:12.400Z,57.30
2022-08-10T12:26:10.002Z,57.40
2022-08-10T12:28:50.002Z,57.30
2022-08-10T12:31:25.533Z,61.50
2022-08-10T12:34:06.659Z,69.40
2022-08-10T12:36:49.098Z,57.40
2022-08-10T12:39:36.076Z,60.30
2022-08-10T12:42:34.833Z,63.60
2022-08-10T12:45:12.951Z,61.30
2022-08-10T12:47:57.083Z,57.10
2022-08-10T12:50:34.405Z,57.10
2022-08-10T12:53:11.780Z,59.50
2022-08-10T12:55:39.792Z,52.90
2022-08-10T12:58:58.934Z,54.20
2022-08-10T13:01:16.448Z,45.90
2022-08-10T13:04:23.063Z,46.20
2022-08-10T13:06:41.973Z,39.60
2022-08-10T13:09:09.720Z,40.10
2022-08-10T13:12:36.106Z,38.10
2022-08-10T13:14:46.370Z,30.50
2022-08-10T13:17:20.987Z,26.00
2022-08-10T13:19:55.651Z,24.00
2022-08-10T13:22:30.273Z,24.40
2022-08-10T13:25:01.696Z,26.50
2022-08-10T13:28:00.439Z,27.30
2022-08-10T13:30:35.632Z,24.50
2022-08-10T13:33:11.230Z,22.10
2022-08-10T13:35:39.251Z,21.00
2022-08-10T13:38:09.610Z,28.90
2022-08-10T13:40:38.438Z,22.40
2022-08-10T13:43:08.368Z,21.00
2022-08-10T13:45:43.951Z,19.40
2022-08-10T13:48:19.743Z,25.40
2022-08-10T13:50:49.321Z,24.40
2022-08-10T13:53:18.515Z,24.00
2022-08-10T13:58:38.442Z,25.60
2022-08-10T14:01:23.904Z,31.50
2022-08-10T14:03:53.558Z,34.20
2022-08-10T14:06:29.751Z,36.80
2022-08-10T14:09:05.181Z,38.40
2022-08-10T14:11:36.307Z,26.30
2022-08-10T14:14:24.722Z,25.30
2022-08-10T14:16:53.067Z,25.20
2022-08-10T14:19:26.749Z,23.10
2022-08-10T14:21:55.314Z,31.40
2022-08-10T14:24:25.529Z,30.20
2022-08-10T14:27:06.627Z,31.60
2022-08-10T14:29:43.594Z,31.00
2022-08-10T14:32:13.108Z,27.20
2022-08-10T14:36:16.500Z,28.20
2022-08-10T14:37:48.422Z,37.30
2022-08-10T14:40:18.890Z,40.50
2022-08-10T14:43:02.457Z,40.00
2022-08-10T14:45:42.269Z,38.80
2022-08-10T14:48:47.155Z,39.50
2022-08-10T14:51:19.252Z,39.90
2022-08-10T14:53:54.167Z,40.60
2022-08-10T14:56:34.089Z,42.70
2022-08-10T14:59:07.002Z,41.00
2022-08-10T15:02:00.086Z,42.40
2022-08-10T15:04:28.869Z,43.80
2022-08-10T15:06:57.960Z,42.10
2022-08-10T15:09:59.739Z,41.70
2022-08-10T15:12:36.931Z,43.80
2022-08-10T15:15:09.651Z,47.50
2022-08-10T15:17:45.804Z,49.60
2022-08-10T15:20:21.513Z,48.80
2022-08-10T15:23:01.806Z,49.10
2022-08-10T15:25:30.775Z,51.60
2022-08-10T15:28:10.656Z,53.00
2022-08-10T15:30:44.607Z,51.20
2022-08-10T15:33:57.670Z,51.30
2022-08-10T15:36:43.561Z,51.40
2022-08-10T15:40:02.218Z,54.70
2022-08-10T15:42:10.472Z,54.70
2022-08-10T15:44:44.400Z,56.30
2022-08-10T15:47:20.300Z,56.10
2022-08-10T15:50:06.363Z,55.10
2022-08-10T15:53:00.960Z,57.10
2022-08-10T15:55:44.108Z,57.60
2022-08-10T15:58:19.606Z,62.30
2022-08-10T16:00:59.222Z,59.60
2022-08-10T16:03:41.414Z,58.80
2022-08-10T16:06:13.089Z,61.40
2022-08-10T16:08:57.159Z,66.10
2022-08-10T16:11:46.738Z,62.20
2022-08-10T16:14:15.699Z,61.70
2022-08-10T16:16:48.773Z,61.00
2022-08-10T16:19:25.125Z,60.80
2022-08-10T16:22:05.197Z,59.80
2022-08-10T16:24:52.667Z,60.70
2022-08-10T16:27:22.927Z,63.20
2022-08-10T16:29:57.033Z,66.60
2022-08-10T16:32:25.608Z,65.30
2022-08-10T16:34:54.083Z,64.90
2022-08-10T16:40:09.505Z,63.40
2022-08-10T16:42:44.958Z,65.70
2022-08-10T16:45:17.683Z,67.40
2022-08-10T16:47:51.938Z,67.10
2022-08-10T16:50:42.485Z,66.40
2022-08-10T16:53:13.908Z,66.70
2022-08-10T16:55:50.615Z,69.10
2022-08-10T17:01:21.854Z,68.00
2022-08-10T17:04:07.984Z,68.70
2022-08-10T17:06:48.806Z,68.70
2022-08-10T17:09:22.260Z,68.80
2022-08-10T17:11:52.873Z,68.80
2022-08-10T17:14:25.821Z,68.00
2022-08-10T17:16:57.056Z,67.80
2022-08-10T17:19:26.889Z,69.40
2022-08-10T17:22:14.280Z,67.60
2022-08-10T17:24:46.451Z,67.90
2022-08-10T17:28:21.185Z,68.10
2022-08-10T17:30:13.870Z,68.60
2022-08-10T17:32:56.127Z,68.80
2022-08-10T17:35:28.985Z,69.80
2022-08-10T17:38:25.682Z,68.90
2022-08-10T17:41:18.639Z,71.20
2022-08-10T17:44:02.140Z,70.40
2022-08-10T17:46:40.519Z,69.40
2022-08-10T17:49:13.196Z,70.50
2022-08-10T17:51:42.226Z,70.90
2022-08-10T17:54:21.015Z,72.60
2022-08-10T17:56:51.349Z,73.20
2022-08-10T17:59:24.680Z,73.20
2022-08-10T18:02:01.541Z,72.10
2022-08-10T18:04:41.331Z,72.70
2022-08-10T18:07:11.778Z,73.60
2022-08-10T18:09:49.956Z,72.50
2022-08-10T18:12:36.138Z,73.50
2022-08-10T18:15:13.465Z,74.00
2022-08-10T18:17:45.020Z,75.00
2022-08-10T18:20:14.707Z,75.60
2022-08-10T18:22:49.511Z,75.90
2022-08-10T18:25:23.932Z,77.20
2022-08-10T18:28:01.622Z,77.60
2022-08-10T18:30:36.544Z,79.40
2022-08-10T18:33:08.925Z,80.20
2022-08-10T18:35:37.512Z,80.10
2022-08-10T18:38:06.852Z,80.00
2022-08-10T18:40:38.287Z,80.10
2022-08-10T18:44:02.887Z,79.30
2022-08-10T18:45:58.601Z,80.70
2022-08-10T18:48:40.317Z,81.00
2022-08-10T18:51:09.110Z,80.20
2022-08-10T18:53:48.346Z,80.70
2022-08-10T18:56:21.685Z,78.60
2022-08-10T18:59:06.079Z,80.10
2022-08-10T19:01:58.816Z,80.20
2022-08-10T19:05:01.416Z,71.60
2022-08-10T19:07:45.942Z,70.50
2022-08-10T19:10:50.992Z,69.10
2022-08-10T19:16:35.861Z,68.20
2022-08-10T19:19:22.952Z,68.60
2022-08-10T19:22:29.143Z,67.70
2022-08-10T19:24:59.503Z,67.90
2022-08-10T19:27:32.631Z,65.00
2022-08-10T19:30:11.713Z,64.90
2022-08-10T19:32:46.526Z,65.40
2022-08-10T19:35:23.393Z,66.90
2022-08-10T19:38:00.592Z,65.30
2022-08-10T19:40:56.344Z,64.70
2022-08-10T19:44:01.300Z,63.80
2022-08-10T19:46:45.274Z,64.00
2022-08-10T19:49:40.053Z,64.80
2022-08-10T19:52:33.277Z,64.40
2022-08-10T19:55:24.627Z,63.60
2022-08-10T19:58:16.965Z,64.10
2022-08-10T20:01:06.915Z,64.00
2022-08-10T20:03:55.258Z,64.70
2022-08-10T20:06:31.018Z,66.00
2022-08-10T20:09:27.847Z,63.70
2022-08-10T20:12:07.924Z,64.70
2022-08-10T20:15:02.340Z,65.30
2022-08-10T20:17:50.996Z,64.60
2022-08-10T20:20:40.848Z,65.50
2022-08-10T20:23:16.941Z,63.90
2022-08-10T20:26:07.877Z,65.70
2022-08-10T20:28:43.996Z,65.70
2022-08-10T20:31:17.628Z,65.50
2022-08-10T20:34:07.193Z,65.80
2022-08-10T20:36:40.336Z,66.70
2022-08-10T20:39:16.507Z,65.00
2022-08-10T20:42:07.386Z,67.50
2022-08-10T20:44:43.950Z,66.00
2022-08-10T20:47:26.452Z,65.70
2022-08-10T20:49:56.244Z,65.60
2022-08-10T20:52:26.480Z,66.70
2022-08-10T20:54:59.282Z,66.40
2022-08-10T20:58:04.744Z,66.20
2022-08-10T21:00:23.945Z,68.40
2022-08-10T21:03:21.074Z,65.60
2022-08-10T21:06:36.307Z,65.40
2022-08-10T21:09:37.763Z,67.00
2022-08-10T21:12:27.431Z,67.30
2022-08-10T21:15:10.342Z,66.60
2022-08-10T21:17:49.101Z,65.90
2022-08-10T21:20:32.500Z,66.70
2022-08-10T21:23:05.830Z,65.80
2022-08-10T21:25:44.985Z,68.30
2022-08-10T21:28:19.559Z,74.30
2022-08-10T21:31:26.778Z,70.40
2022-08-10T21:34:14.789Z,70.00
2022-08-10T21:36:55.514Z,69.80
2022-08-10T21:39:42.519Z,71.10
2022-08-10T21:43:00.032Z,70.10
2022-08-10T21:45:59.162Z,73.70
2022-08-10T21:48:57.195Z,72.50
2022-08-10T21:52:04.033Z,75.80
2022-08-10T21:55:57.818Z,74.70
2022-08-10T21:58:42.029Z,71.20
2022-08-10T22:01:39.781Z,72.70
2022-08-10T22:04:26.676Z,71.80
2022-08-10T22:07:14.874Z,72.40
2022-08-10T22:10:05.443Z,71.90
2022-08-10T22:13:00.438Z,70.60
2022-08-10T22:16:10.005Z,70.40
2022-08-10T22:19:03.557Z,72.80
2022-08-10T22:22:19.701Z,76.20
2022-08-10T22:25:28.372Z,80.70
2022-08-10T22:28:18.280Z,73.20
2022-08-10T22:35:04.622Z,84.60
2022-08-10T22:37:56.371Z,80.40
2022-08-10T22:40:43.422Z,83.10
2022-08-10T22:43:48.212Z,82.00
2022-08-10T22:46:42.570Z,83.70
2022-08-10T22:49:10.354Z,82.20
2022-08-10T22:51:51.286Z,83.80
2022-08-10T22:54:46.177Z,86.40
2022-08-10T22:57:34.457Z,90.50
2022-08-10T23:00:20.390Z,87.20
2022-08-10T23:03:16.731Z,87.90
2022-08-10T23:06:14.975Z,88.00
2022-08-10T23:08:47.159Z,89.60
2022-08-10T23:11:33.120Z,90.00
2022-08-10T23:14:06.584Z,88.90
2022-08-10T23:17:12.740Z,87.30
2022-08-10T23:19:46.316Z,89.80
2022-08-10T23:22:16.395Z,89.10
2022-08-10T23:25:07.198Z,88.30
2022-08-10T23:27:40.532Z,90.10
2022-08-10T23:30:17.181Z,91.70
2022-08-10T23:32:51.558Z,93.30
2022-08-10T23:36:31.577Z,91.80
2022-08-10T23:38:12.548Z,93.20
2022-08-10T23:40:46.335Z,92.90
2022-08-10T23:44:00.409Z,93.40
2022-08-10T23:46:24.398Z,94.90
2022-08-10T23:48:54.925Z,94.80
2022-08-10T23:51:38.737Z,95.10
2022-08-10T23:54:23.638Z,96.00
2022-08-10T23:57:01.036Z,97.50
2022-08-10T23:59:32.373Z,97.30
